Hovedside
METAR-TAF:

METAR-TAF

Lufthavner :

Bluefields, Nicaragua

breddegrad: 12-00N, lengdegrad: 083-46W, høyde over havet: 5 m

Gjeldene værobservasjon

Denne rapporten ble laget for 10 timer og 56 minutter siden, klokken 23:00 UTC
Vind 8 kt fra Nordøst
Temperatur 27°C
Luftfuktighet 70%
Trykk 1015 hPa
Sikt 10 km eller mer
Spredte skyer i en høyde av 2500 ft

METAR: MNBL 252300Z 05008KT 9999 SCT025 27/21 Q1015

Tid: 03:56 (09:56 UTC)

Varsel

Denne rapporten ble laget for 13 timer og 11 minutter siden, klokken 20:45 UTC
Varsel gyldig fra 26. klokken 00 UTC til 26. klokken 24 UTC
Vind 10 kt fra Nordøst
Sikt 10 km eller mer
Få skyer i en høyde av 2200 ft
Midlertidig
fra 26. klokken 06 UTC til 26. klokken 12 UTC
Vind 12 kt fra Øst-nordøst
Sikt: 8000 m
Brutte skyer i en høyde av 1700 ft
i nærheten, regn,

TAF: MNBL 252045Z 2600/2624 04010KT 9999 FEW022 TEMPO 2606/2612 06012KT 8000 VCRA BKN017

Værobservasjoner og værvarsel for over 4000 flyplasser (METAR- og TAF-rapporter).

Tilgjengelige stasjoner er representert av de røde og gule prikkene på kartet.

Hold musepekeren over prikken for å se navnet på stasjonen.

Klikk så for å se værobservasjoner og -varsler.

For å forandre kartet kan du klikke på den grønne knappen med svart kryss for å zoome inn, på den grønne knappen med strek for å zoome ut, eller på de grønne pilene for å se tilstøtende kart.


METAR-TAF: